Terminal Aerodrome Forecast
Issued by NWS Charleston, WV

Current Version | Previous Version | Text Only | Print | Product List | Glossary Off
Versions: 1 2 3 4 5 6 7 8 9 10 11 12 13 14 15 16 17 18 19 20 21 22 23 24 25 26 27 28 29 30

000
FTUS41 KRLX 191400 AAA
TAFEKN
TAF AMD
KEKN 191447Z 1915/2012 27005KT P6SM SCT025 BKN035
     FM191900 28010G15KT P6SM BKN050
     FM200300 30006KT P6SM SCT050
     FM200500 30005KT 6SM BR SCT050
     FM200700 30004KT 5SM BR BKN003
     FM200900 29005KT 2SM BR BKN001=

USA.gov is the U.S. government's official web portal to all federal, state and local government web resources and services.